Time;durP1;ratioP1;P1;durP2;ratioP2;P2;SDS_P1;SDS_P2;PMS_P1;PMS_P2;Temp;Humidity;BMP_temperature;BMP_pressure;BME280_temperature;BME280_humidity;BME280_pressure;Samples;Min_cycle;Max_cycle;Signal;HPM_P1;HPM_P2
2023/10/19 00:01:34;;;;;;;19.77;17.80;;;;;;;7.21;100.00;98329.19;6126158;23;20664;-83
2023/10/19 00:04:07;;;;;;;18.73;16.87;;;;;;;7.24;100.00;98326.88;6126997;23;20195;-86
2023/10/19 00:06:36;;;;;;;19.63;17.70;;;;;;;7.24;100.00;98321.53;6125912;23;20194;-82
2023/10/19 00:09:04;;;;;;;19.20;17.30;;;;;;;7.25;100.00;98322.34;6077683;23;20697;-82
2023/10/19 00:11:32;;;;;;;20.03;18.13;;;;;;;7.32;100.00;98310.56;6101523;23;20191;-83
2023/10/19 00:14:02;;;;;;;19.83;17.83;;;;;;;7.46;100.00;98301.31;6101162;23;20171;-83
2023/10/19 00:16:35;;;;;;;19.23;17.50;;;;;;;7.53;100.00;98303.84;6077684;23;20190;-86
2023/10/19 00:19:03;;;;;;;19.00;17.00;;;;;;;7.53;100.00;98291.34;6077704;23;20172;-82
2023/10/19 00:21:48;;;;;;;19.97;18.07;;;;;;;7.61;100.00;98292.81;6101063;23;20223;-83
2023/10/19 00:24:23;;;;;;;19.57;17.67;;;;;;;7.64;100.00;98289.72;6104100;23;20175;-83
2023/10/19 00:26:55;;;;;;;18.93;17.13;;;;;;;7.69;100.00;98279.16;6125509;23;20392;-84
2023/10/19 00:29:33;;;;;;;19.83;17.97;;;;;;;7.73;100.00;98272.31;6100952;23;20203;-85
2023/10/19 00:32:06;;;;;;;20.07;18.03;;;;;;;7.77;100.00;98268.13;6103764;23;20210;-85
2023/10/19 00:34:38;;;;;;;19.97;18.13;;;;;;;7.87;100.00;98259.53;6102032;23;20186;-83
2023/10/19 00:37:10;;;;;;;19.23;17.43;;;;;;;7.94;100.00;98260.19;6102318;23;20154;-87
2023/10/19 00:39:48;;;;;;;19.93;18.00;;;;;;;7.89;100.00;98276.91;6077210;23;20176;-84
2023/10/19 00:42:23;;;;;;;20.17;18.07;;;;;;;7.89;100.00;98268.91;6103948;23;20202;-83
2023/10/19 00:44:51;;;;;;;20.33;18.23;;;;;;;7.87;100.00;98276.34;6125912;23;20171;-83
2023/10/19 00:47:24;;;;;;;20.60;18.67;;;;;;;7.90;100.00;98277.72;6125203;23;20218;-82
2023/10/19 00:50:02;;;;;;;20.40;18.40;;;;;;;7.88;100.00;98266.50;6077559;23;20168;-83
2023/10/19 00:52:31;;;;;;;20.57;18.67;;;;;;;7.85;100.00;98270.44;6101925;23;20167;-83
2023/10/19 00:55:00;;;;;;;21.20;19.20;;;;;;;7.81;100.00;98257.81;6077863;23;20168;-83
2023/10/19 00:57:37;;;;;;;21.03;18.80;;;;;;;7.83;100.00;98245.88;6102160;23;20183;-82
2023/10/19 01:00:11;;;;;;;21.07;19.07;;;;;;;7.91;100.00;98242.00;6079152;23;20246;-83
2023/10/19 01:02:45;;;;;;;20.83;18.80;;;;;;;7.91;100.00;98240.16;6101518;23;20670;-83
2023/10/19 01:05:21;;;;;;;20.77;18.77;;;;;;;7.89;100.00;98236.91;6101990;23;20231;-83
2023/10/19 01:07:57;;;;;;;22.30;20.30;;;;;;;7.91;100.00;98236.69;6124086;23;20717;-83
2023/10/19 01:10:29;;;;;;;21.17;19.17;;;;;;;7.88;100.00;98231.84;6125692;23;20167;-84
2023/10/19 01:12:59;;;;;;;21.23;19.33;;;;;;;7.88;100.00;98224.66;6124215;23;20552;-83
2023/10/19 01:18:01;;;;;;;21.57;19.57;;;;;;;7.92;100.00;98212.47;6100690;23;20176;-85
2023/10/19 01:20:50;;;;;;;21.97;19.87;;;;;;;7.87;100.00;98211.53;6076893;23;20186;-83
2023/10/19 01:23:22;;;;;;;22.30;20.13;;;;;;;7.88;100.00;98205.97;6079876;23;20255;-82
2023/10/19 01:28:51;;;;;;;22.43;20.23;;;;;;;7.82;100.00;98195.44;6101864;23;20160;-82
2023/10/19 01:31:38;;;;;;;23.07;20.77;;;;;;;7.86;100.00;98197.41;6081590;23;20186;-84
2023/10/19 01:34:09;;;;;;;22.43;20.33;;;;;;;7.83;100.00;98197.06;6103753;23;20203;-84
2023/10/19 01:36:52;;;;;;;;;;;;;;;;;;;;;
2023/10/19 01:39:23;;;;;;;23.23;21.03;;;;;;;7.86;100.00;98177.91;6104178;23;20210;-85
2023/10/19 01:41:50;;;;;;;23.00;20.70;;;;;;;7.80;100.00;98176.19;6124720;23;20246;-84
2023/10/19 01:44:20;;;;;;;22.73;20.63;;;;;;;7.71;100.00;98180.28;6100434;23;20267;-85
2023/10/19 01:46:49;;;;;;;22.83;20.63;;;;;;;7.67;100.00;98169.28;6101703;23;20561;-83
2023/10/19 01:49:26;;;;;;;22.10;20.10;;;;;;;7.58;100.00;98175.22;6100565;23;20264;-86
2023/10/19 01:51:54;;;;;;;22.57;20.47;;;;;;;7.53;100.00;98187.38;6079073;23;20171;-83
2023/10/19 01:54:25;;;;;;;22.47;20.43;;;;;;;7.51;100.00;98178.03;6101223;23;20251;-84
2023/10/19 01:56:54;;;;;;;23.63;21.47;;;;;;;7.50;100.00;98181.72;6076685;23;20210;-83
2023/10/19 01:59:26;;;;;;;25.07;22.67;;;;;;;7.51;100.00;98181.47;6101204;23;20256;-82
2023/10/19 02:01:56;;;;;;;23.47;21.27;;;;;;;7.54;100.00;98172.22;6101305;23;20187;-83
2023/10/19 02:04:34;;;;;;;24.20;21.87;;;;;;;7.55;100.00;98170.38;6076284;23;20254;-82
2023/10/19 02:07:05;;;;;;;23.63;21.43;;;;;;;7.53;100.00;98162.59;6077716;23;20187;-84
2023/10/19 02:09:42;;;;;;;24.17;21.77;;;;;;;7.53;100.00;98162.59;6102652;23;20191;-83
2023/10/19 02:12:14;;;;;;;24.23;21.93;;;;;;;7.54;100.00;98166.88;6100863;23;20179;-82
2023/10/19 02:14:43;;;;;;;24.30;22.00;;;;;;;7.49;100.00;98161.44;6076652;23;20520;-83
2023/10/19 02:17:14;;;;;;;24.70;22.33;;;;;;;7.55;100.00;98157.84;6078213;23;20247;-84
2023/10/19 02:19:45;;;;;;;23.23;21.03;;;;;;;7.53;100.00;98154.59;6077033;23;20206;-83
2023/10/19 02:22:17;;;;;;;23.43;21.13;;;;;;;7.52;100.00;98152.97;6100875;23;20192;-83
2023/10/19 02:24:45;;;;;;;24.13;21.80;;;;;;;7.56;100.00;98156.78;6076800;23;20168;-83
2023/10/19 02:27:20;;;;;;;23.33;21.23;;;;;;;7.53;100.00;98143.94;6101775;23;20192;-82
2023/10/19 02:30:01;;;;;;;24.37;22.07;;;;;;;7.55;100.00;98141.03;6102964;23;20175;-83
2023/10/19 02:32:28;;;;;;;24.57;22.03;;;;;;;7.58;100.00;98143.22;6076773;23;20198;-83
2023/10/19 02:35:04;;;;;;;25.33;22.93;;;;;;;7.64;100.00;98145.78;6077780;23;20195;-83
2023/10/19 02:37:33;;;;;;;23.93;21.57;;;;;;;7.65;100.00;98142.03;6124637;23;20191;-83
2023/10/19 02:40:03;;;;;;;24.83;22.33;;;;;;;7.66;100.00;98137.50;6077124;23;20194;-83
2023/10/19 02:42:32;;;;;;;24.23;22.03;;;;;;;7.63;100.00;98135.34;6079438;23;20179;-83
2023/10/19 02:45:08;;;;;;;24.17;21.87;;;;;;;7.59;100.00;98126.19;6126071;23;20615;-83
2023/10/19 02:47:41;;;;;;;23.87;21.57;;;;;;;7.58;100.00;98122.72;6102883;23;20187;-84
2023/10/19 02:50:12;;;;;;;24.57;22.13;;;;;;;7.61;100.00;98114.25;6078789;23;20155;-83
2023/10/19 02:52:46;;;;;;;24.67;22.30;;;;;;;7.58;100.00;98117.38;6103789;23;20147;-83
2023/10/19 02:55:16;;;;;;;24.63;22.37;;;;;;;7.56;100.00;98127.47;6126275;23;20168;-82
2023/10/19 02:57:47;;;;;;;25.03;22.63;;;;;;;7.58;100.00;98119.25;6102412;23;20172;-83
2023/10/19 03:00:20;;;;;;;24.53;22.13;;;;;;;7.56;100.00;98116.03;6102594;23;20630;-84
2023/10/19 03:02:51;;;;;;;25.20;22.70;;;;;;;7.62;100.00;98115.88;6101506;23;20164;-84
2023/10/19 03:05:21;;;;;;;26.03;23.53;;;;;;;7.63;100.00;98106.81;6127046;23;20215;-83
2023/10/19 03:07:52;;;;;;;24.17;21.97;;;;;;;7.70;100.00;98104.81;6079069;23;20270;-83
2023/10/19 03:10:34;;;;;;;25.33;22.93;;;;;;;7.71;100.00;98108.28;6101788;23;20163;-84
2023/10/19 03:13:07;;;;;;;23.90;21.60;;;;;;;7.68;100.00;98098.94;6105627;23;20203;-83
2023/10/19 03:15:39;;;;;;;25.57;23.03;;;;;;;7.74;100.00;98091.84;6078293;23;20218;-83
2023/10/19 03:18:07;;;;;;;25.77;23.37;;;;;;;7.75;100.00;98088.09;6102589;23;20622;-83
2023/10/19 03:20:38;;;;;;;24.73;22.43;;;;;;;7.75;100.00;98080.09;6126121;23;20176;-82
2023/10/19 03:23:05;;;;;;;25.63;23.10;;;;;;;7.76;100.00;98076.41;6102144;23;20175;-85
2023/10/19 03:28:26;;;;;;;25.10;22.70;;;;;;;7.76;100.00;98073.72;6105862;23;20254;-82
2023/10/19 03:30:55;;;;;;;25.13;22.73;;;;;;;7.78;100.00;98079.66;6101268;23;20195;-82
2023/10/19 03:33:27;;;;;;;25.83;23.30;;;;;;;7.78;100.00;98069.78;6100165;23;20180;-83
2023/10/19 03:35:58;;;;;;;26.10;23.57;;;;;;;7.76;100.00;98071.06;6103062;23;20171;-83
2023/10/19 03:38:31;;;;;;;25.50;23.00;;;;;;;7.77;100.00;98072.69;6125518;23;20183;-82
2023/10/19 03:41:10;;;;;;;26.07;23.57;;;;;;;7.73;100.00;98064.38;6103488;23;20244;-82
2023/10/19 03:43:43;;;;;;;26.40;23.83;;;;;;;7.71;100.00;98068.31;6102238;23;20166;-82
2023/10/19 03:46:22;;;;;;;24.70;22.40;;;;;;;7.72;100.00;98073.41;6079100;23;20171;-82
2023/10/19 03:48:51;;;;;;;25.50;23.00;;;;;;;7.68;100.00;98074.94;6103669;23;20246;-84
2023/10/19 03:51:24;;;;;;;24.73;22.33;;;;;;;7.68;100.00;98076.78;6101611;23;20267;-83
2023/10/19 03:54:01;;;;;;;25.17;22.77;;;;;;;7.64;100.00;98073.81;6125686;23;20176;-83
2023/10/19 03:56:32;;;;;;;25.27;22.77;;;;;;;7.64;100.00;98065.00;6079211;23;20182;-82
2023/10/19 03:59:01;;;;;;;25.00;22.43;;;;;;;7.66;100.00;98066.34;6125463;23;20194;-84
2023/10/19 04:01:31;;;;;;;26.47;23.87;;;;;;;7.64;100.00;98051.66;6101113;23;20167;-81
2023/10/19 04:04:01;;;;;;;26.30;23.60;;;;;;;7.61;100.00;98049.47;6101709;23;20204;-88
2023/10/19 04:06:29;;;;;;;25.83;23.40;;;;;;;7.63;100.00;98042.84;6078779;23;20180;-85
2023/10/19 04:09:09;;;;;;;25.87;23.37;;;;;;;7.69;100.00;98041.91;6102816;23;20169;-84
2023/10/19 04:11:49;;;;;;;26.17;23.57;;;;;;;7.67;100.00;98037.84;6102124;23;20184;-83
2023/10/19 04:14:21;;;;;;;25.07;22.57;;;;;;;7.63;100.00;98042.84;6079907;23;20177;-85
2023/10/19 04:16:49;;;;;;;24.97;22.47;;;;;;;7.61;100.00;98038.78;6077891;23;20164;-82
2023/10/19 04:19:20;;;;;;;24.87;22.47;;;;;;;7.59;100.00;98043.56;6077177;23;20176;-85
2023/10/19 04:21:53;;;;;;;25.17;22.67;;;;;;;7.54;100.00;98030.97;6077746;23;20202;-82
2023/10/19 04:24:21;;;;;;;23.60;21.30;;;;;;;7.49;100.00;98037.00;6101536;23;20202;-83
2023/10/19 04:26:49;;;;;;;21.87;19.87;;;;;;;7.44;100.00;98020.91;6077549;23;20168;-83
2023/10/19 04:29:27;;;;;;;23.03;20.93;;;;;;;7.42;100.00;98028.34;6102006;23;20166;-82
2023/10/19 04:31:59;;;;;;;21.43;19.53;;;;;;;7.36;100.00;98012.50;6080127;23;20226;-82
2023/10/19 04:34:30;;;;;;;22.37;20.27;;;;;;;7.35;100.00;98008.22;6125214;23;20174;-82
2023/10/19 04:37:00;;;;;;;21.43;19.53;;;;;;;7.30;100.00;98011.59;6101770;23;20203;-82
2023/10/19 04:39:34;;;;;;;22.77;20.47;;;;;;;7.23;100.00;98002.13;6077535;23;20849;-82
2023/10/19 04:42:10;;;;;;;22.57;20.37;;;;;;;7.19;100.00;98001.78;6125319;23;20223;-83
2023/10/19 04:44:38;;;;;;;22.53;20.43;;;;;;;7.13;100.00;98000.09;6126929;23;20599;-82
2023/10/19 04:47:06;;;;;;;22.63;20.43;;;;;;;7.06;100.00;97994.06;6101132;23;20215;-83
2023/10/19 04:49:42;;;;;;;21.67;19.57;;;;;;;7.01;100.00;98001.97;6101520;23;20173;-82
2023/10/19 04:52:17;;;;;;;22.80;20.60;;;;;;;7.00;100.00;98003.00;6102288;23;20168;-82
2023/10/19 04:54:49;;;;;;;23.47;21.23;;;;;;;7.00;100.00;97993.16;6078460;23;20172;-81
2023/10/19 04:57:23;;;;;;;23.03;20.93;;;;;;;6.98;100.00;97997.13;6101684;23;20250;-82
2023/10/19 04:59:51;;;;;;;24.27;21.77;;;;;;;6.94;100.00;97999.44;6077890;23;20164;-83
2023/10/19 05:02:18;;;;;;;24.90;22.50;;;;;;;6.93;100.00;97997.81;6076214;23;20173;-84
2023/10/19 05:04:46;;;;;;;23.73;21.53;;;;;;;6.95;100.00;97989.59;6100411;23;20282;-83
2023/10/19 05:07:16;;;;;;;23.43;21.13;;;;;;;6.95;100.00;97982.41;6077144;23;20188;-83
2023/10/19 05:09:46;;;;;;;24.27;21.90;;;;;;;6.92;100.00;97990.88;6076863;23;20198;-84
2023/10/19 05:12:16;;;;;;;23.53;21.20;;;;;;;6.92;100.00;97985.53;6100104;23;20172;-82
2023/10/19 05:14:43;;;;;;;24.40;22.10;;;;;;;6.91;100.00;97983.94;6076936;23;20654;-83
2023/10/19 05:17:13;;;;;;;24.13;21.73;;;;;;;6.92;100.00;97982.88;6077940;23;20178;-83
2023/10/19 05:19:44;;;;;;;23.93;21.47;;;;;;;6.88;100.00;97979.06;6101450;23;20168;-82
2023/10/19 05:22:17;;;;;;;24.60;22.30;;;;;;;6.88;100.00;97973.75;6101416;23;20174;-83
2023/10/19 05:24:47;;;;;;;24.13;21.93;;;;;;;6.91;100.00;97980.44;6101339;23;20203;-83
2023/10/19 05:27:15;;;;;;;24.57;22.17;;;;;;;6.90;100.00;97985.00;6100968;23;20210;-83
2023/10/19 05:29:44;;;;;;;24.47;22.00;;;;;;;6.96;100.00;97993.88;6124922;23;20204;-83
2023/10/19 05:32:11;;;;;;;23.07;20.87;;;;;;;6.94;100.00;97991.47;6077100;23;20198;-82
2023/10/19 05:34:39;;;;;;;24.80;22.40;;;;;;;7.03;100.00;97998.03;6100341;23;20191;-82
2023/10/19 05:37:08;;;;;;;24.20;21.87;;;;;;;7.10;100.00;98000.53;6100588;23;20168;-83
2023/10/19 05:39:36;;;;;;;24.97;22.67;;;;;;;7.17;100.00;98003.06;6100514;23;20171;-83
2023/10/19 05:42:06;;;;;;;24.67;22.20;;;;;;;7.23;100.00;98002.13;6100565;23;20176;-83
2023/10/19 05:44:35;;;;;;;24.43;22.20;;;;;;;7.31;100.00;98002.56;6100191;23;20249;-83
2023/10/19 05:47:06;;;;;;;23.93;21.57;;;;;;;7.38;100.00;97987.22;6100519;23;20168;-83
2023/10/19 05:49:34;;;;;;;24.27;22.07;;;;;;;7.45;100.00;97977.25;6076602;23;20167;-82
2023/10/19 05:52:06;;;;;;;23.80;21.57;;;;;;;7.51;100.00;97980.81;6100950;23;20160;-82
2023/10/19 05:54:36;;;;;;;24.17;21.87;;;;;;;7.65;100.00;97976.00;6076687;23;20167;-83
2023/10/19 05:57:08;;;;;;;24.27;21.77;;;;;;;7.70;100.00;97970.75;6124452;23;20164;-82
2023/10/19 05:59:36;;;;;;;25.10;22.53;;;;;;;7.68;100.00;97970.97;6100811;23;20184;-81
2023/10/19 06:02:07;;;;;;;23.50;21.27;;;;;;;7.76;100.00;97967.91;6076909;23;20198;-83
2023/10/19 06:04:37;;;;;;;23.50;21.30;;;;;;;7.88;100.00;97970.50;6100641;23;20195;-83
2023/10/19 06:07:05;;;;;;;23.90;21.43;;;;;;;7.96;100.00;97981.59;6077184;23;20175;-82
2023/10/19 06:09:32;;;;;;;24.37;21.97;;;;;;;8.02;100.00;97985.13;6076496;23;20662;-81
2023/10/19 06:12:01;;;;;;;23.80;21.47;;;;;;;8.10;100.00;97974.06;6100272;23;20180;-82
2023/10/19 06:14:30;;;;;;;23.13;21.03;;;;;;;8.27;100.00;97982.03;6077175;23;20175;-82
2023/10/19 06:17:01;;;;;;;23.30;21.20;;;;;;;8.34;100.00;97962.19;6102929;23;20163;-82
2023/10/19 06:19:28;;;;;;;23.27;21.07;;;;;;;8.46;100.00;97951.38;6102106;23;20172;-82
2023/10/19 06:22:04;;;;;;;22.80;20.70;;;;;;;8.59;100.00;97952.88;6078642;23;20171;-82
2023/10/19 06:24:37;;;;;;;23.30;21.17;;;;;;;8.66;100.00;97964.19;6104769;23;20178;-81
2023/10/19 06:27:07;;;;;;;22.60;20.20;;;;;;;8.78;100.00;97970.22;6126102;23;20182;-83
2023/10/19 06:29:39;;;;;;;21.93;19.87;;;;;;;8.92;100.00;97971.47;6125832;23;20174;-83
2023/10/19 06:32:09;;;;;;;22.73;20.40;;;;;;;9.03;100.00;97959.84;6126105;23;20262;-82
2023/10/19 06:34:38;;;;;;;22.43;20.27;;;;;;;9.14;100.00;97968.81;6102710;23;20250;-83
2023/10/19 06:37:10;;;;;;;22.73;20.53;;;;;;;9.24;100.00;97974.22;6078480;23;20246;-82
2023/10/19 06:39:40;;;;;;;22.20;20.07;;;;;;;9.36;100.00;97979.44;6126062;23;20614;-83
2023/10/19 06:42:13;;;;;;;21.70;19.70;;;;;;;9.48;100.00;97978.22;6126242;23;20176;-82
2023/10/19 06:44:44;;;;;;;21.03;19.17;;;;;;;9.56;100.00;97985.00;6102029;23;20176;-83
2023/10/19 06:47:14;;;;;;;21.47;19.47;;;;;;;9.66;100.00;97979.72;6078958;23;20160;-82
2023/10/19 06:49:43;;;;;;;21.43;19.53;;;;;;;9.77;100.00;97983.31;6078673;23;20176;-82
2023/10/19 06:52:16;;;;;;;21.90;19.87;;;;;;;9.85;100.00;97970.28;6102492;23;20168;-83
2023/10/19 06:54:54;;;;;;;21.40;19.30;;;;;;;9.96;100.00;97955.13;6125694;23;20182;-82
2023/10/19 06:57:24;;;;;;;21.90;19.90;;;;;;;10.02;100.00;97957.59;6078041;23;20171;-82
2023/10/19 06:59:54;;;;;;;20.90;19.00;;;;;;;10.06;100.00;97957.88;6102048;23;20258;-83
2023/10/19 07:02:30;;;;;;;21.53;19.63;;;;;;;10.15;100.00;97959.03;6078218;23;20606;-83
2023/10/19 07:04:57;;;;;;;21.37;19.47;;;;;;;10.30;100.00;97947.66;6125773;23;20676;-84
2023/10/19 07:07:29;;;;;;;21.87;19.87;;;;;;;10.44;100.00;97951.47;6102172;23;20172;-83
2023/10/19 07:09:59;;;;;;;21.10;19.20;;;;;;;10.54;100.00;97946.97;6078612;23;20176;-83
2023/10/19 07:12:36;;;;;;;22.47;20.23;;;;;;;10.72;100.00;97953.78;6081879;23;20234;-84
2023/10/19 07:15:07;;;;;;;21.80;19.80;;;;;;;10.76;100.00;97946.81;6078164;23;20226;-82
2023/10/19 07:17:38;;;;;;;21.20;19.30;;;;;;;10.80;100.00;97947.91;6078885;23;20223;-83
2023/10/19 07:20:25;;;;;;;22.47;20.40;;;;;;;10.88;100.00;97942.03;6102643;23;20164;-84
2023/10/19 07:23:19;;;;;;;22.60;20.27;;;;;;;10.80;100.00;97960.50;6087311;23;20164;-83
2023/10/19 07:25:52;;;;;;;21.23;19.13;;;;;;;10.78;100.00;97957.28;6079731;23;20181;-84
2023/10/19 07:28:21;;;;;;;21.53;19.53;;;;;;;10.95;100.00;97957.88;6079161;23;20187;-83
2023/10/19 07:30:55;;;;;;;21.07;18.93;;;;;;;11.11;100.00;97953.38;6102020;23;20238;-83
2023/10/19 07:33:26;;;;;;;21.70;19.70;;;;;;;11.31;100.00;97958.81;6101923;23;20199;-82
2023/10/19 07:35:59;;;;;;;21.27;19.30;;;;;;;11.49;100.00;97961.78;6101546;23;20177;-83
2023/10/19 07:38:34;;;;;;;20.87;18.83;;;;;;;11.70;100.00;97954.59;6125683;23;20175;-82
2023/10/19 07:41:05;;;;;;;21.07;18.97;;;;;;;11.59;100.00;97949.47;6125220;23;20167;-82
2023/10/19 07:43:36;;;;;;;20.63;18.77;;;;;;;11.81;100.00;97952.72;6079247;23;20509;-84
2023/10/19 07:46:05;;;;;;;20.37;18.57;;;;;;;12.02;100.00;97954.34;6077260;23;20255;-83
2023/10/19 07:48:33;;;;;;;19.93;17.97;;;;;;;12.15;100.00;97943.06;6076137;23;20196;-84
2023/10/19 07:51:03;;;;;;;20.63;18.83;;;;;;;12.25;100.00;97937.69;6076532;23;20179;-83
2023/10/19 07:53:31;;;;;;;20.43;18.60;;;;;;;12.32;100.00;97948.13;6101295;23;20172;-83
2023/10/19 07:56:05;;;;;;;19.30;17.67;;;;;;;12.44;100.00;97942.50;6076841;23;20176;-85
2023/10/19 07:58:33;;;;;;;19.27;17.30;;;;;;;12.35;100.00;97934.19;6101035;23;20172;-85
2023/10/19 08:01:05;;;;;;;19.87;17.97;;;;;;;12.58;100.00;97935.47;6100711;23;20271;-83
2023/10/19 08:03:37;;;;;;;19.97;18.10;;;;;;;12.82;100.00;97935.66;6079351;23;20219;-84
2023/10/19 08:06:06;;;;;;;19.33;17.33;;;;;;;12.98;100.00;97937.19;6100969;23;20169;-82
2023/10/19 08:08:35;;;;;;;19.93;17.97;;;;;;;13.12;100.00;97930.97;6100922;23;20219;-83
2023/10/19 08:11:02;;;;;;;19.37;17.37;;;;;;;13.33;100.00;97930.88;6077145;23;20251;-83
2023/10/19 08:13:32;;;;;;;19.20;17.53;;;;;;;13.49;100.00;97924.28;6125232;23;20252;-84
2023/10/19 08:16:00;;;;;;;19.13;17.33;;;;;;;13.51;100.00;97911.38;6100351;23;20221;-83
2023/10/19 08:18:30;;;;;;;19.30;17.60;;;;;;;13.51;100.00;97912.19;6101067;23;20196;-83
2023/10/19 08:21:01;;;;;;;18.80;17.10;;;;;;;13.32;100.00;97903.16;6100929;23;20167;-82
2023/10/19 08:23:31;;;;;;;18.20;16.53;;;;;;;13.21;100.00;97905.09;6100827;23;20611;-83
2023/10/19 08:26:01;;;;;;;19.97;18.17;;;;;;;13.33;100.00;97909.34;6124822;23;20550;-83
2023/10/19 08:28:32;;;;;;;18.87;17.20;;;;;;;13.39;100.00;97919.00;6100963;23;20189;-83
2023/10/19 08:31:05;;;;;;;18.50;16.80;;;;;;;13.57;100.00;97923.72;6101244;23;20149;-84
2023/10/19 08:33:33;;;;;;;19.23;17.63;;;;;;;13.76;100.00;97921.16;6078770;23;20177;-84
2023/10/19 08:36:01;;;;;;;18.20;16.40;;;;;;;13.70;100.00;97925.78;6124396;23;20639;-84
2023/10/19 08:38:30;;;;;;;18.37;16.53;;;;;;;13.48;100.00;97928.09;6077028;23;20177;-82
2023/10/19 08:41:00;;;;;;;18.73;16.83;;;;;;;13.64;100.00;97922.31;6124202;23;20231;-83
2023/10/19 08:43:33;;;;;;;18.47;16.77;;;;;;;13.89;100.00;97912.44;6101299;23;20174;-83
2023/10/19 08:46:05;;;;;;;18.23;16.60;;;;;;;14.06;100.00;97910.13;6100802;23;20160;-82
2023/10/19 08:48:34;;;;;;;18.47;16.67;;;;;;;13.98;100.00;97911.56;6077283;23;20193;-84
2023/10/19 08:51:21;;;;;;;18.93;17.23;;;;;;;13.90;100.00;97909.47;6067410;23;20225;-83
2023/10/19 08:53:50;;;;;;;18.10;16.50;;;;;;;14.11;100.00;97905.50;6100914;23;20183;-83
2023/10/19 08:56:23;;;;;;;18.17;16.47;;;;;;;14.26;100.00;97911.81;6101146;23;20156;-83
2023/10/19 08:58:54;;;;;;;18.90;17.30;;;;;;;14.37;100.00;97908.75;6077588;23;20564;-82
2023/10/19 09:01:23;;;;;;;18.30;16.70;;;;;;;14.46;100.00;97909.75;6100946;23;20248;-82
2023/10/19 09:03:51;;;;;;;19.40;17.63;;;;;;;14.33;100.00;97904.19;6100681;23;20298;-83
2023/10/19 09:06:20;;;;;;;18.40;16.70;;;;;;;14.78;100.00;97895.66;6100104;23;20220;-83
2023/10/19 09:08:50;;;;;;;17.27;15.77;;;;;;;14.90;100.00;97892.53;6101437;23;20194;-83
2023/10/19 09:11:21;;;;;;;16.83;15.40;;;;;;;15.07;100.00;97903.63;6100066;23;20251;-83
2023/10/19 09:13:51;;;;;;;17.23;15.57;;;;;;;15.24;100.00;97903.94;6078051;23;20171;-82
2023/10/19 09:16:20;;;;;;;17.57;15.67;;;;;;;15.36;100.00;97908.88;6099986;23;20192;-82
2023/10/19 09:18:52;;;;;;;16.70;15.20;;;;;;;15.41;100.00;97882.63;6100585;23;20270;-83
2023/10/19 09:21:24;;;;;;;17.90;16.27;;;;;;;15.67;100.00;97885.00;6100237;23;20198;-83
2023/10/19 09:23:54;;;;;;;16.73;15.10;;;;;;;15.29;100.00;97871.50;6101401;23;20183;-83
2023/10/19 09:26:24;;;;;;;16.60;15.17;;;;;;;15.27;100.00;97880.97;6100086;23;20621;-82
2023/10/19 09:28:56;;;;;;;17.07;15.30;;;;;;;15.44;100.00;97867.78;6100608;23;20195;-82
2023/10/19 09:31:24;;;;;;;16.03;14.53;;;;;;;15.61;100.00;97868.06;6100750;23;20210;-82
2023/10/19 09:33:57;;;;;;;16.23;14.83;;;;;;;15.79;100.00;97858.31;6076689;23;20175;-82
2023/10/19 09:36:27;;;;;;;15.73;14.13;;;;;;;15.58;100.00;97848.97;6076344;23;20207;-82
2023/10/19 09:38:57;;;;;;;16.30;14.70;;;;;;;15.19;100.00;97850.06;6100487;23;20163;-83
2023/10/19 09:41:32;;;;;;;15.73;14.33;;;;;;;15.53;100.00;97860.66;6075192;23;20168;-83
2023/10/19 09:44:09;;;;;;;16.00;14.43;;;;;;;15.84;100.00;97866.34;6075737;23;20197;-83
2023/10/19 09:46:40;;;;;;;15.87;14.37;;;;;;;15.81;100.00;97867.75;6123070;23;20610;-83
2023/10/19 09:49:11;;;;;;;15.60;14.13;;;;;;;15.46;100.00;97872.84;6123724;23;20195;-83
2023/10/19 09:51:40;;;;;;;16.37;14.83;;;;;;;15.30;100.00;97873.06;6099993;23;20199;-83
2023/10/19 09:54:26;;;;;;;16.27;14.67;;;;;;;15.51;100.00;97873.63;6101396;23;20512;-83
2023/10/19 09:57:01;;;;;;;16.20;14.80;;;;;;;15.37;100.00;97857.34;6123629;23;20170;-83
2023/10/19 09:59:38;;;;;;;16.10;14.70;;;;;;;15.79;100.00;97863.72;6123881;23;20248;-83
2023/10/19 10:02:12;;;;;;;15.97;14.37;;;;;;;15.72;100.00;97872.19;6075983;23;20720;-83
2023/10/19 10:04:48;;;;;;;16.30;14.77;;;;;;;15.32;100.00;97864.69;6122049;23;20199;-83
2023/10/19 10:07:25;;;;;;;15.80;14.30;;;;;;;14.98;100.00;97851.41;6078433;23;20182;-83
2023/10/19 10:10:11;;;;;;;14.93;13.63;;;;;;;15.95;100.00;97858.88;6103379;23;20190;-82
2023/10/19 10:12:39;;;;;;;15.30;13.90;;;;;;;16.22;100.00;97857.00;6099527;23;20234;-83
2023/10/19 10:15:09;;;;;;;14.60;13.30;;;;;;;16.37;100.00;97847.81;6099763;23;20196;-83
2023/10/19 10:17:40;;;;;;;14.50;13.30;;;;;;;16.51;100.00;97853.22;6119762;23;20227;-82
2023/10/19 10:20:15;;;;;;;14.67;13.33;;;;;;;16.91;100.00;97838.88;6123925;23;20175;-82
2023/10/19 10:22:43;;;;;;;14.97;13.53;;;;;;;17.04;100.00;97835.34;6124055;23;20172;-82
2023/10/19 10:25:30;;;;;;;14.67;13.17;;;;;;;17.37;100.00;97832.44;6100048;23;20200;-83
2023/10/19 10:28:08;;;;;;;14.40;12.90;;;;;;;17.62;100.00;97821.03;6100919;23;20168;-82
2023/10/19 10:31:09;;;;;;;15.20;13.80;;;;;;;17.77;100.00;97819.84;6077349;23;20167;-82
2023/10/19 10:33:42;;;;;;;14.10;12.80;;;;;;;17.54;100.00;97795.44;6123995;23;20656;-83
2023/10/19 10:36:19;;;;;;;13.97;12.77;;;;;;;17.61;100.00;97786.94;6100976;23;20167;-84
2023/10/19 10:38:53;;;;;;;14.17;12.97;;;;;;;17.05;100.00;97777.44;6100179;23;20245;-82
2023/10/19 10:41:29;;;;;;;13.80;12.60;;;;;;;17.21;100.00;97779.78;6123941;23;20176;-83
2023/10/19 10:43:58;;;;;;;13.00;11.90;;;;;;;17.82;100.00;97776.38;6101028;23;20170;-83
2023/10/19 10:46:31;;;;;;;12.43;11.37;;;;;;;18.31;100.00;97770.69;6075758;23;20222;-82
2023/10/19 10:49:02;;;;;;;12.63;11.63;;;;;;;18.53;100.00;97768.97;6077009;23;20218;-82
2023/10/19 10:51:33;;;;;;;13.23;11.63;;;;;;;17.67;100.00;97760.53;6077278;23;20168;-82
2023/10/19 10:54:00;;;;;;;14.17;12.90;;;;;;;17.37;100.00;97748.53;6100318;23;20172;-83
2023/10/19 10:56:29;;;;;;;13.60;12.50;;;;;;;18.08;100.00;97746.69;6099560;23;20195;-82
2023/10/19 10:58:57;;;;;;;13.43;12.23;;;;;;;17.84;100.00;97755.19;6076749;23;20175;-82
2023/10/19 11:01:33;;;;;;;13.73;12.53;;;;;;;17.53;100.00;97760.59;6100433;23;20168;-82
2023/10/19 11:04:09;;;;;;;13.23;12.00;;;;;;;18.11;100.00;97768.53;6125266;23;20195;-82
2023/10/19 11:06:47;;;;;;;13.43;12.27;;;;;;;17.48;100.00;97766.13;6100865;23;20168;-81
2023/10/19 11:09:24;;;;;;;13.43;12.23;;;;;;;17.75;100.00;97754.34;6078182;23;20218;-82
2023/10/19 11:11:54;;;;;;;12.20;11.00;;;;;;;17.70;100.00;97749.88;6125413;23;20156;-83
2023/10/19 11:14:24;;;;;;;12.13;10.90;;;;;;;18.22;100.00;97731.91;6125873;23;20239;-81
2023/10/19 11:17:11;;;;;;;13.10;11.93;;;;;;;17.73;100.00;97740.34;6124771;23;20218;-82
2023/10/19 11:19:40;;;;;;;13.37;12.27;;;;;;;17.54;100.00;97735.13;6078619;23;20153;-83
2023/10/19 11:22:11;;;;;;;12.43;11.30;;;;;;;17.85;100.00;97733.22;6125202;23;20176;-82
2023/10/19 11:24:39;;;;;;;12.40;11.30;;;;;;;17.84;100.00;97736.22;6125314;23;20179;-83
2023/10/19 11:27:12;;;;;;;12.90;11.23;;;;;;;17.35;100.00;97732.63;6077141;23;20171;-82
2023/10/19 11:29:57;;;;;;;12.40;11.30;;;;;;;17.78;100.00;97727.44;6078572;23;20198;-82
2023/10/19 11:32:25;;;;;;;12.53;11.33;;;;;;;18.08;100.00;97709.56;6077048;23;20168;-83
2023/10/19 11:34:55;;;;;;;12.13;11.03;;;;;;;18.13;100.00;97705.91;6077698;23;20172;-82
2023/10/19 11:37:25;;;;;;;11.67;10.57;;;;;;;18.16;100.00;97699.84;6100608;23;20246;-82
2023/10/19 11:39:52;;;;;;;12.07;11.03;;;;;;;18.22;100.00;97695.88;6077920;23;20180;-83
2023/10/19 11:42:25;;;;;;;12.33;11.23;;;;;;;17.76;100.00;97694.47;6101097;23;20222;-83
2023/10/19 11:44:52;;;;;;;12.47;11.27;;;;;;;17.84;100.00;97690.97;6077963;23;20179;-82